Station Historical Data
Daily Summary for April 7, 2017 Units:  Both    English   Metric
« Previous Day
Next Day »
Daily Weekly Monthly Yearly Custom
  High: Low: Average:
Temperature: 37.7 °F /  3.2 °C 32.0 °F /  0 °C 33.7 °F /  0.9 °C
Dew Point: 31.1 °F /  -0.5 °C 23.3 °F /  -4.8 °C 28.7 °F /  -1.8 °C
Humidity: 93% 63% 82%
Wind Speed: 15.0mph /  24.1km/h - 4.9mph /  7.9km/h
Wind Gust: 22.0mph /  35.4km/h - -
Wind- - NW
Pressure: 29.86 in /  1011.1 hPa 29.33 in /  993.1 hPa -
Precipitation: 0.00 in /  0 mm    
Historical Graphs
 
 
Tabular Data for April 7, 2017
Time Temperature Dew Point Pressure Wind Wind Speed Wind Gust Humidity Rainfall Rate (Hourly)
00:04 32.8 °F /  0.4 °C 31.0 °F /  -0.6 °C 29.33in /  993.1hPa NW 3.0mph /  4.8km/h 7.0mph /  11.3km/h 93% 0.00in /  0mm
00:09 32.8 °F /  0.4 °C 31.0 °F /  -0.6 °C 29.34in /  993.5hPa NW 3.0mph /  4.8km/h 7.0mph /  11.3km/h 93% 0.00in /  0mm
00:14 32.8 °F /  0.4 °C 31.0 °F /  -0.6 °C 29.34in /  993.5hPa NW 3.0mph /  4.8km/h 7.0mph /  11.3km/h 93% 0.00in /  0mm
00:19 32.8 °F /  0.4 °C 31.0 °F /  -0.6 °C 29.34in /  993.5hPa WNW 5.0mph /  8km/h 9.0mph /  14.5km/h 93% 0.00in /  0mm
00:24 32.8 °F /  0.4 °C 31.0 °F /  -0.6 °C 29.34in /  993.5hPa NW 4.0mph /  6.4km/h 9.0mph /  14.5km/h 93% 0.00in /  0mm
00:29 32.7 °F /  0.4 °C 30.9 °F /  -0.6 °C 29.33in /  993.1hPa WNW 3.0mph /  4.8km/h 6.0mph /  9.7km/h 93% 0.00in /  0mm
00:34 32.7 °F /  0.4 °C 30.9 °F /  -0.6 °C 29.34in /  993.5hPa NW 7.0mph /  11.3km/h 8.0mph /  12.9km/h 93% 0.00in /  0mm
00:39 32.7 °F /  0.4 °C 30.9 °F /  -0.6 °C 29.34in /  993.5hPa Calm   8.0mph /  12.9km/h 93% 0.00in /  0mm
00:44 32.8 °F /  0.4 °C 31.0 °F /  -0.6 °C 29.34in /  993.5hPa NNW 4.0mph /  6.4km/h 8.0mph /  12.9km/h 93% 0.00in /  0mm
00:49 32.7 °F /  0.4 °C 30.9 °F /  -0.6 °C 29.33in /  993.1hPa NW 3.0mph /  4.8km/h 11.0mph /  17.7km/h 93% 0.00in /  0mm
00:54 32.7 °F /  0.4 °C 30.9 °F /  -0.6 °C 29.34in /  993.5hPa NW 4.0mph /  6.4km/h 11.0mph /  17.7km/h 93% 0.00in /  0mm
00:59 32.8 °F /  0.4 °C 31.0 °F /  -0.6 °C 29.34in /  993.5hPa NW 4.0mph /  6.4km/h 10.0mph /  16.1km/h 93% 0.00in /  0mm
01:04 32.7 °F /  0.4 °C 30.9 °F /  -0.6 °C 29.34in /  993.5hPa NW 4.0mph /  6.4km/h 10.0mph /  16.1km/h 93% 0.00in /  0mm
01:09 32.8 °F /  0.4 °C 31.0 °F /  -0.6 °C 29.34in /  993.5hPa NW 3.0mph /  4.8km/h 10.0mph /  16.1km/h 93% 0.00in /  0mm
01:14 32.8 °F /  0.4 °C 31.0 °F /  -0.6 °C 29.34in /  993.5hPa NW 3.0mph /  4.8km/h 7.0mph /  11.3km/h 93% 0.00in /  0mm
01:19 32.8 °F /  0.4 °C 31.0 °F /  -0.6 °C 29.34in /  993.5hPa NW 5.0mph /  8km/h 8.0mph /  12.9km/h 93% 0.00in /  0mm
01:24 32.8 °F /  0.4 °C 31.0 °F /  -0.6 °C 29.34in /  993.5hPa WSW 6.0mph /  9.7km/h 8.0mph /  12.9km/h 93% 0.00in /  0mm
01:29 32.8 °F /  0.4 °C 31.0 °F /  -0.6 °C 29.34in /  993.5hPa NW 4.0mph /  6.4km/h 8.0mph /  12.9km/h 93% 0.00in /  0mm
01:34 32.8 °F /  0.4 °C 31.0 °F /  -0.6 °C 29.34in /  993.5hPa NW 2.0mph /  3.2km/h 7.0mph /  11.3km/h 93% 0.00in /  0mm
01:39 32.8 °F /  0.4 °C 31.0 °F /  -0.6 °C 29.34in /  993.5hPa NW 3.0mph /  4.8km/h 9.0mph /  14.5km/h 93% 0.00in /  0mm
01:44 32.8 °F /  0.4 °C 31.0 °F /  -0.6 °C 29.34in /  993.5hPa NW 2.0mph /  3.2km/h 7.0mph /  11.3km/h 93% 0.00in /  0mm
01:49 32.7 °F /  0.4 °C 30.9 °F /  -0.6 °C 29.34in /  993.5hPa WNW 2.0mph /  3.2km/h 8.0mph /  12.9km/h 93% 0.00in /  0mm
01:54 32.7 °F /  0.4 °C 30.9 °F /  -0.6 °C 29.34in /  993.5hPa WNW 3.0mph /  4.8km/h 9.0mph /  14.5km/h 93% 0.00in /  0mm
01:59 32.7 °F /  0.4 °C 30.9 °F /  -0.6 °C 29.34in /  993.5hPa NW 3.0mph /  4.8km/h 9.0mph /  14.5km/h 93% 0.00in /  0mm
02:04 32.7 °F /  0.4 °C 30.9 °F /  -0.6 °C 29.34in /  993.5hPa NW 3.0mph /  4.8km/h 8.0mph /  12.9km/h 93% 0.00in /  0mm
02:09 32.7 °F /  0.4 °C 30.9 °F /  -0.6 °C 29.34in /  993.5hPa NW 4.0mph /  6.4km/h 8.0mph /  12.9km/h 93% 0.00in /  0mm
02:14 32.7 °F /  0.4 °C 30.9 °F /  -0.6 °C 29.34in /  993.5hPa NW 4.0mph /  6.4km/h 13.0mph /  20.9km/h 93% 0.00in /  0mm
02:19 32.7 °F /  0.4 °C 30.9 °F /  -0.6 °C 29.34in /  993.5hPa NW 4.0mph /  6.4km/h 13.0mph /  20.9km/h 93% 0.00in /  0mm
02:24 32.8 °F /  0.4 °C 31.0 °F /  -0.6 °C 29.34in /  993.5hPa NNW 5.0mph /  8km/h 11.0mph /  17.7km/h 93% 0.00in /  0mm
02:29 32.8 °F /  0.4 °C 31.0 °F /  -0.6 °C 29.34in /  993.5hPa NW 5.0mph /  8km/h 9.0mph /  14.5km/h 93% 0.00in /  0mm
02:34 32.8 °F /  0.4 °C 31.0 °F /  -0.6 °C 29.35in /  993.8hPa NW 10.0mph /  16.1km/h 10.0mph /  16.1km/h 93% 0.00in /  0mm
02:39 32.8 °F /  0.4 °C 31.0 °F /  -0.6 °C 29.35in /  993.8hPa North 7.0mph /  11.3km/h 13.0mph /  20.9km/h 93% 0.00in /  0mm
02:44 32.8 °F /  0.4 °C 31.0 °F /  -0.6 °C 29.34in /  993.5hPa NW 5.0mph /  8km/h 9.0mph /  14.5km/h 93% 0.00in /  0mm
02:49 32.8 °F /  0.4 °C 31.0 °F /  -0.6 °C 29.34in /  993.5hPa North 4.0mph /  6.4km/h 10.0mph /  16.1km/h 93% 0.00in /  0mm
02:54 32.9 °F /  0.5 °C 31.1 °F /  -0.5 °C 29.35in /  993.8hPa North 4.0mph /  6.4km/h 10.0mph /  16.1km/h 93% 0.00in /  0mm
02:59 32.9 °F /  0.5 °C 31.1 °F /  -0.5 °C 29.35in /  993.8hPa WNW 5.0mph /  8km/h 11.0mph /  17.7km/h 93% 0.00in /  0mm
03:04 32.9 °F /  0.5 °C 31.1 °F /  -0.5 °C 29.35in /  993.8hPa NW 5.0mph /  8km/h 13.0mph /  20.9km/h 93% 0.00in /  0mm
03:09 32.9 °F /  0.5 °C 31.1 °F /  -0.5 °C 29.35in /  993.8hPa NW 6.0mph /  9.7km/h 15.0mph /  24.1km/h 93% 0.00in /  0mm
03:14 32.9 °F /  0.5 °C 31.1 °F /  -0.5 °C 29.35in /  993.8hPa NW 5.0mph /  8km/h 15.0mph /  24.1km/h 93% 0.00in /  0mm
03:19 32.9 °F /  0.5 °C 31.1 °F /  -0.5 °C 29.35in /  993.8hPa NNW 6.0mph /  9.7km/h 11.0mph /  17.7km/h 93% 0.00in /  0mm
03:24 32.9 °F /  0.5 °C 31.1 °F /  -0.5 °C 29.35in /  993.8hPa NW 5.0mph /  8km/h 12.0mph /  19.3km/h 93% 0.00in /  0mm
03:29 32.9 °F /  0.5 °C 31.1 °F /  -0.5 °C 29.35in /  993.8hPa WNW 2.0mph /  3.2km/h 10.0mph /  16.1km/h 93% 0.00in /  0mm
03:34 32.8 °F /  0.4 °C 31.0 °F /  -0.6 °C 29.35in /  993.8hPa NW 5.0mph /  8km/h 11.0mph /  17.7km/h 93% 0.00in /  0mm
03:39 32.8 °F /  0.4 °C 31.0 °F /  -0.6 °C 29.35in /  993.8hPa NW 5.0mph /  8km/h 11.0mph /  17.7km/h 93% 0.00in /  0mm
03:44 32.8 °F /  0.4 °C 31.0 °F /  -0.6 °C 29.35in /  993.8hPa NW 5.0mph /  8km/h 9.0mph /  14.5km/h 93% 0.00in /  0mm
03:49 32.8 °F /  0.4 °C 31.0 °F /  -0.6 °C 29.36in /  994.1hPa NNW 4.0mph /  6.4km/h 12.0mph /  19.3km/h 93% 0.01in /  0.25mm
03:54 32.8 °F /  0.4 °C 31.0 °F /  -0.6 °C 29.36in /  994.1hPa NW 2.0mph /  3.2km/h 10.0mph /  16.1km/h 93% 0.01in /  0.25mm
03:59 32.7 °F /  0.4 °C 30.9 °F /  -0.6 °C 29.36in /  994.1hPa NNW 4.0mph /  6.4km/h 10.0mph /  16.1km/h 93% 0.01in /  0.25mm
04:04 32.8 °F /  0.4 °C 31.0 °F /  -0.6 °C 29.36in /  994.1hPa NW 2.0mph /  3.2km/h 10.0mph /  16.1km/h 93% 0.01in /  0.25mm
04:09 32.8 °F /  0.4 °C 31.0 °F /  -0.6 °C 29.36in /  994.1hPa NW 5.0mph /  8km/h 10.0mph /  16.1km/h 93% 0.01in /  0.25mm
04:14 32.8 °F /  0.4 °C 31.0 °F /  -0.6 °C 29.37in /  994.5hPa NW 4.0mph /  6.4km/h 11.0mph /  17.7km/h 93% 0.01in /  0.25mm
04:19 32.8 °F /  0.4 °C 31.0 °F /  -0.6 °C 29.37in /  994.5hPa NW 5.0mph /  8km/h 9.0mph /  14.5km/h 93% 0.01in /  0.25mm
04:24 32.8 °F /  0.4 °C 31.0 °F /  -0.6 °C 29.37in /  994.5hPa NW 4.0mph /  6.4km/h 9.0mph /  14.5km/h 93% 0.01in /  0.25mm
04:29 32.8 °F /  0.4 °C 31.0 °F /  -0.6 °C 29.37in /  994.5hPa WSW 9.0mph /  14.5km/h 11.0mph /  17.7km/h 93% 0.01in /  0.25mm
04:34 32.8 °F /  0.4 °C 31.0 °F /  -0.6 °C 29.37in /  994.5hPa NW 6.0mph /  9.7km/h 13.0mph /  20.9km/h 93% 0.01in /  0.25mm
04:39 32.7 °F /  0.4 °C 30.9 °F /  -0.6 °C 29.37in /  994.5hPa NW 5.0mph /  8km/h 13.0mph /  20.9km/h 93% 0.01in /  0.25mm
04:44 32.8 °F /  0.4 °C 31.0 °F /  -0.6 °C 29.37in /  994.5hPa NNW 5.0mph /  8km/h 11.0mph /  17.7km/h 93% 0.01in /  0.25mm
04:49 32.7 °F /  0.4 °C 30.9 °F /  -0.6 °C 29.38in /  994.8hPa NW 5.0mph /  8km/h 12.0mph /  19.3km/h 93% 0.00in /  0mm
04:54 32.8 °F /  0.4 °C 31.0 °F /  -0.6 °C 29.38in /  994.8hPa NW 5.0mph /  8km/h 12.0mph /  19.3km/h 93% 0.01in /  0.25mm
04:59 32.8 °F /  0.4 °C 31.0 °F /  -0.6 °C 29.38in /  994.8hPa North 6.0mph /  9.7km/h 9.0mph /  14.5km/h 93% 0.01in /  0.25mm
05:04 32.7 °F /  0.4 °C 30.9 °F /  -0.6 °C 29.38in /  994.8hPa NW 4.0mph /  6.4km/h 10.0mph /  16.1km/h 93% 0.01in /  0.25mm
05:09 32.7 °F /  0.4 °C 30.9 °F /  -0.6 °C 29.39in /  995.1hPa NNW 5.0mph /  8km/h 13.0mph /  20.9km/h 93% 0.01in /  0.25mm
05:14 32.7 °F /  0.4 °C 30.9 °F /  -0.6 °C 29.39in /  995.1hPa NNW 5.0mph /  8km/h 13.0mph /  20.9km/h 93% 0.01in /  0.25mm
05:19 32.7 °F /  0.4 °C 30.9 °F /  -0.6 °C 29.39in /  995.1hPa NNW 6.0mph /  9.7km/h 13.0mph /  20.9km/h 93% 0.01in /  0.25mm
05:24 32.6 °F /  0.3 °C 30.8 °F /  -0.7 °C 29.39in /  995.1hPa NNW 7.0mph /  11.3km/h 11.0mph /  17.7km/h 93% 0.01in /  0.25mm
05:29 32.6 °F /  0.3 °C 30.8 °F /  -0.7 °C 29.39in /  995.1hPa WNW 3.0mph /  4.8km/h 8.0mph /  12.9km/h 93% 0.01in /  0.25mm
05:34 32.6 °F /  0.3 °C 30.8 °F /  -0.7 °C 29.39in /  995.1hPa NNW 4.0mph /  6.4km/h 13.0mph /  20.9km/h 93% 0.01in /  0.25mm
05:39 32.6 °F /  0.3 °C 30.8 °F /  -0.7 °C 29.40in /  995.5hPa NW 6.0mph /  9.7km/h 13.0mph /  20.9km/h 93% 0.01in /  0.25mm
05:44 32.6 °F /  0.3 °C 30.8 °F /  -0.7 °C 29.40in /  995.5hPa NW 6.0mph /  9.7km/h 15.0mph /  24.1km/h 93% 0.01in /  0.25mm
05:49 32.5 °F /  0.3 °C 30.7 °F /  -0.7 °C 29.40in /  995.5hPa NNW 7.0mph /  11.3km/h 15.0mph /  24.1km/h 93% 0.01in /  0.25mm
05:54 32.5 °F /  0.3 °C 30.7 °F /  -0.7 °C 29.41in /  995.8hPa NNW 7.0mph /  11.3km/h 18.0mph /  29km/h 93% 0.00in /  0mm
05:59 32.5 °F /  0.3 °C 30.7 °F /  -0.7 °C 29.41in /  995.8hPa NNW 7.0mph /  11.3km/h 18.0mph /  29km/h 93% 0.00in /  0mm
06:04 32.5 °F /  0.3 °C 30.7 °F /  -0.7 °C 29.41in /  995.8hPa NW 6.0mph /  9.7km/h 12.0mph /  19.3km/h 93% 0.00in /  0mm
06:09 32.4 °F /  0.2 °C 30.6 °F /  -0.8 °C 29.41in /  995.8hPa NNW 6.0mph /  9.7km/h 12.0mph /  19.3km/h 93% 0.00in /  0mm
06:14 32.4 °F /  0.2 °C 30.6 °F /  -0.8 °C 29.42in /  996.2hPa NNW 6.0mph /  9.7km/h 15.0mph /  24.1km/h 93% 0.00in /  0mm
06:19 32.4 °F /  0.2 °C 30.6 °F /  -0.8 °C 29.42in /  996.2hPa NW 5.0mph /  8km/h 16.0mph /  25.7km/h 93% 0.00in /  0mm
06:24 32.4 °F /  0.2 °C 30.6 °F /  -0.8 °C 29.42in /  996.2hPa NNW 3.0mph /  4.8km/h 14.0mph /  22.5km/h 93% 0.00in /  0mm
06:29 32.3 °F /  0.2 °C 30.5 °F /  -0.8 °C 29.42in /  996.2hPa NNW 8.0mph /  12.9km/h 11.0mph /  17.7km/h 93% 0.00in /  0mm
06:34 32.3 °F /  0.2 °C 30.5 °F /  -0.8 °C 29.43in /  996.5hPa NNW 5.0mph /  8km/h 11.0mph /  17.7km/h 93% 0.00in /  0mm
06:39 32.3 °F /  0.2 °C 30.5 °F /  -0.8 °C 29.43in /  996.5hPa North 4.0mph /  6.4km/h 10.0mph /  16.1km/h 93% 0.00in /  0mm
06:44 32.2 °F /  0.1 °C 30.4 °F /  -0.9 °C 29.43in /  996.5hPa NNW 5.0mph /  8km/h 12.0mph /  19.3km/h 93% 0.00in /  0mm
06:49 32.2 °F /  0.1 °C 30.4 °F /  -0.9 °C 29.44in /  996.8hPa NNW 6.0mph /  9.7km/h 13.0mph /  20.9km/h 93% 0.00in /  0mm
06:54 32.2 °F /  0.1 °C 30.4 °F /  -0.9 °C 29.44in /  996.8hPa NNW 6.0mph /  9.7km/h 13.0mph /  20.9km/h 93% 0.00in /  0mm
06:59 32.2 °F /  0.1 °C 30.4 °F /  -0.9 °C 29.44in /  996.8hPa NNW 6.0mph /  9.7km/h 17.0mph /  27.4km/h 93% 0.00in /  0mm
07:04 32.2 °F /  0.1 °C 30.4 °F /  -0.9 °C 29.45in /  997.2hPa NW 9.0mph /  14.5km/h 11.0mph /  17.7km/h 93% 0.00in /  0mm
07:09 32.1 °F /  0.1 °C 30.3 °F /  -0.9 °C 29.45in /  997.2hPa NW 13.0mph /  20.9km/h 14.0mph /  22.5km/h 93% 0.01in /  0.25mm
07:14 32.1 °F /  0.1 °C 30.3 °F /  -0.9 °C 29.45in /  997.2hPa NNW 5.0mph /  8km/h 14.0mph /  22.5km/h 93% 0.01in /  0.25mm
07:19 32.1 °F /  0.1 °C 30.3 °F /  -0.9 °C 29.46in /  997.5hPa NNW 2.0mph /  3.2km/h 13.0mph /  20.9km/h 93% 0.01in /  0.25mm
07:24 32.1 °F /  0.1 °C 30.3 °F /  -0.9 °C 29.46in /  997.5hPa Calm     93% 0.01in /  0.25mm
07:29 32.1 °F /  0.1 °C 30.3 °F /  -0.9 °C 29.46in /  997.5hPa Calm     93% 0.01in /  0.25mm
07:34 32.1 °F /  0.1 °C 30.3 °F /  -0.9 °C 29.47in /  997.9hPa Calm     93% 0.01in /  0.25mm
07:39 32.1 °F /  0.1 °C 30.0 °F /  -1.1 °C 29.47in /  997.9hPa Calm     92% 0.01in /  0.25mm
07:44 32.1 °F /  0.1 °C 30.0 °F /  -1.1 °C 29.48in /  998.2hPa Calm     92% 0.01in /  0.25mm
07:49 32.2 °F /  0.1 °C 30.1 °F /  -1.1 °C 29.48in /  998.2hPa Calm     92% 0.01in /  0.25mm
07:54 32.3 °F /  0.2 °C 30.2 °F /  -1 °C 29.48in /  998.2hPa Calm     92% 0.01in /  0.25mm
07:59 32.3 °F /  0.2 °C 30.2 °F /  -1 °C 29.49in /  998.5hPa Calm     92% 0.01in /  0.25mm
08:04 32.4 °F /  0.2 °C 30.1 °F /  -1.1 °C 29.49in /  998.5hPa Calm     91% 0.01in /  0.25mm
08:09 32.4 °F /  0.2 °C 30.1 °F /  -1.1 °C 29.49in /  998.5hPa Calm     91% 0.00in /  0mm
08:14 32.5 °F /  0.3 °C 30.2 °F /  -1 °C 29.49in /  998.5hPa Calm     91% 0.01in /  0.25mm
08:19 32.5 °F /  0.3 °C 30.2 °F /  -1 °C 29.50in /  998.9hPa Calm     91% 0.01in /  0.25mm
08:24 32.5 °F /  0.3 °C 30.2 °F /  -1 °C 29.50in /  998.9hPa Calm     91% 0.01in /  0.25mm
08:29 32.5 °F /  0.3 °C 30.2 °F /  -1 °C 29.50in /  998.9hPa Calm     91% 0.01in /  0.25mm
08:34 32.4 °F /  0.2 °C 30.1 °F /  -1.1 °C 29.51in /  999.2hPa NW 7.0mph /  11.3km/h 11.0mph /  17.7km/h 91% 0.01in /  0.25mm
08:39 32.4 °F /  0.2 °C 30.1 °F /  -1.1 °C 29.51in /  999.2hPa NNW 6.0mph /  9.7km/h 13.0mph /  20.9km/h 91% 0.01in /  0.25mm
08:44 32.4 °F /  0.2 °C 30.1 °F /  -1.1 °C 29.52in /  999.5hPa NNW 7.0mph /  11.3km/h 11.0mph /  17.7km/h 91% 0.01in /  0.25mm
08:49 32.3 °F /  0.2 °C 30.0 °F /  -1.1 °C 29.52in /  999.5hPa NNW 5.0mph /  8km/h 11.0mph /  17.7km/h 91% 0.01in /  0.25mm
08:54 32.2 °F /  0.1 °C 29.9 °F /  -1.2 °C 29.52in /  999.5hPa NW 3.0mph /  4.8km/h 12.0mph /  19.3km/h 91% 0.01in /  0.25mm
08:59 32.2 °F /  0.1 °C 29.9 °F /  -1.2 °C 29.52in /  999.5hPa NNW 4.0mph /  6.4km/h 15.0mph /  24.1km/h 91% 0.02in /  0.51mm
09:04 32.1 °F /  0.1 °C 29.8 °F /  -1.2 °C 29.52in /  999.5hPa NW 2.0mph /  3.2km/h 13.0mph /  20.9km/h 91% 0.02in /  0.51mm
09:09 32.1 °F /  0.1 °C 29.8 °F /  -1.2 °C 29.53in /  999.9hPa NNW 4.0mph /  6.4km/h 12.0mph /  19.3km/h 91% 0.02in /  0.51mm
09:14 32.0 °F /  0 °C 29.7 °F /  -1.3 °C 29.53in /  999.9hPa WNW 4.0mph /  6.4km/h 11.0mph /  17.7km/h 91% 0.01in /  0.25mm
09:19 32.0 °F /  0 °C 29.7 °F /  -1.3 °C 29.54in /  1000.2hPa NNW 6.0mph /  9.7km/h 12.0mph /  19.3km/h 91% 0.01in /  0.25mm
09:24 32.0 °F /  0 °C 29.7 °F /  -1.3 °C 29.54in /  1000.2hPa NNW 6.0mph /  9.7km/h 12.0mph /  19.3km/h 91% 0.01in /  0.25mm
09:29 32.1 °F /  0.1 °C 29.8 °F /  -1.2 °C 29.54in /  1000.2hPa NW 6.0mph /  9.7km/h 12.0mph /  19.3km/h 91% 0.01in /  0.25mm
09:34 32.1 °F /  0.1 °C 29.8 °F /  -1.2 °C 29.55in /  1000.6hPa NW 5.0mph /  8km/h 13.0mph /  20.9km/h 91% 0.02in /  0.51mm
09:39 32.1 °F /  0.1 °C 29.8 °F /  -1.2 °C 29.55in /  1000.6hPa NNW 6.0mph /  9.7km/h 20.0mph /  32.2km/h 91% 0.02in /  0.51mm
09:44 32.0 °F /  0 °C 29.7 °F /  -1.3 °C 29.55in /  1000.6hPa North 8.0mph /  12.9km/h 13.0mph /  20.9km/h 91% 0.02in /  0.51mm
09:49 32.1 °F /  0.1 °C 29.8 °F /  -1.2 °C 29.55in /  1000.6hPa NNW 11.0mph /  17.7km/h 16.0mph /  25.7km/h 91% 0.02in /  0.51mm
09:54 32.3 °F /  0.2 °C 30.0 °F /  -1.1 °C 29.56in /  1000.9hPa NNW 8.0mph /  12.9km/h 22.0mph /  35.4km/h 91% 0.02in /  0.51mm
09:59 32.4 °F /  0.2 °C 30.1 °F /  -1.1 °C 29.56in /  1000.9hPa NNW 4.0mph /  6.4km/h 13.0mph /  20.9km/h 91% 0.01in /  0.25mm
10:04 32.3 °F /  0.2 °C 30.0 °F /  -1.1 °C 29.56in /  1000.9hPa NNW 6.0mph /  9.7km/h 14.0mph /  22.5km/h 91% 0.01in /  0.25mm
10:09 32.1 °F /  0.1 °C 29.5 °F /  -1.4 °C 29.57in /  1001.2hPa NNW 7.0mph /  11.3km/h 20.0mph /  32.2km/h 90% 0.02in /  0.51mm
10:14 32.1 °F /  0.1 °C 29.8 °F /  -1.2 °C 29.57in /  1001.2hPa North 9.0mph /  14.5km/h 17.0mph /  27.4km/h 91% 0.02in /  0.51mm
10:19 32.2 °F /  0.1 °C 29.9 °F /  -1.2 °C 29.57in /  1001.2hPa North 8.0mph /  12.9km/h 15.0mph /  24.1km/h 91% 0.02in /  0.51mm
10:24 32.3 °F /  0.2 °C 30.0 °F /  -1.1 °C 29.57in /  1001.2hPa NNW 8.0mph /  12.9km/h 17.0mph /  27.4km/h 91% 0.02in /  0.51mm
10:29 32.4 °F /  0.2 °C 30.1 °F /  -1.1 °C 29.58in /  1001.6hPa NW 7.0mph /  11.3km/h 17.0mph /  27.4km/h 91% 0.03in /  0.76mm
10:34 32.6 °F /  0.3 °C 30.3 °F /  -0.9 °C 29.58in /  1001.6hPa NW 7.0mph /  11.3km/h 21.0mph /  33.8km/h 91% 0.02in /  0.51mm
10:39 32.7 °F /  0.4 °C 30.1 °F /  -1.1 °C 29.58in /  1001.6hPa NNW 7.0mph /  11.3km/h 21.0mph /  33.8km/h 90% 0.02in /  0.51mm
10:44 32.5 °F /  0.3 °C 29.9 °F /  -1.2 °C 29.59in /  1001.9hPa NNW 12.0mph /  19.3km/h 17.0mph /  27.4km/h 90% 0.03in /  0.76mm
10:49 32.6 °F /  0.3 °C 30.0 °F /  -1.1 °C 29.59in /  1001.9hPa NW 8.0mph /  12.9km/h 17.0mph /  27.4km/h 90% 0.03in /  0.76mm
10:54 32.8 °F /  0.4 °C 30.2 °F /  -1 °C 29.59in /  1001.9hPa NNW 7.0mph /  11.3km/h 16.0mph /  25.7km/h 90% 0.04in /  1.02mm
10:59 32.7 °F /  0.4 °C 30.1 °F /  -1.1 °C 29.60in /  1002.3hPa West 11.0mph /  17.7km/h 18.0mph /  29km/h 90% 0.04in /  1.02mm
11:04 32.7 °F /  0.4 °C 30.1 °F /  -1.1 °C 29.60in /  1002.3hPa NNW 10.0mph /  16.1km/h 19.0mph /  30.6km/h 90% 0.04in /  1.02mm
11:09 32.6 °F /  0.3 °C 29.7 °F /  -1.3 °C 29.60in /  1002.3hPa North 9.0mph /  14.5km/h 13.0mph /  20.9km/h 89% 0.04in /  1.02mm
11:14 32.8 °F /  0.4 °C 29.9 °F /  -1.2 °C 29.60in /  1002.3hPa NNW 3.0mph /  4.8km/h 13.0mph /  20.9km/h 89% 0.05in /  1.27mm
11:19 32.8 °F /  0.4 °C 29.9 °F /  -1.2 °C 29.60in /  1002.3hPa North 5.0mph /  8km/h 13.0mph /  20.9km/h 89% 0.05in /  1.27mm
11:24 32.6 °F /  0.3 °C 29.7 °F /  -1.3 °C 29.61in /  1002.6hPa NW 7.0mph /  11.3km/h 14.0mph /  22.5km/h 89% 0.06in /  1.52mm
11:29 32.6 °F /  0.3 °C 29.7 °F /  -1.3 °C 29.61in /  1002.6hPa NW 8.0mph /  12.9km/h 17.0mph /  27.4km/h 89% 0.05in /  1.27mm
11:34 32.6 °F /  0.3 °C 29.7 °F /  -1.3 °C 29.61in /  1002.6hPa NNW 9.0mph /  14.5km/h 17.0mph /  27.4km/h 89% 0.06in /  1.52mm
11:39 33.0 °F /  0.6 °C 30.1 °F /  -1.1 °C 29.62in /  1002.9hPa NNW 7.0mph /  11.3km/h 17.0mph /  27.4km/h 89% 0.06in /  1.52mm
11:44 32.7 °F /  0.4 °C 29.8 °F /  -1.2 °C 29.62in /  1002.9hPa North 6.0mph /  9.7km/h 14.0mph /  22.5km/h 89% 0.06in /  1.52mm
11:49 32.8 °F /  0.4 °C 29.9 °F /  -1.2 °C 29.62in /  1002.9hPa NNW 7.0mph /  11.3km/h 14.0mph /  22.5km/h 89% 0.07in /  1.78mm
11:54 32.6 °F /  0.3 °C 29.7 °F /  -1.3 °C 29.62in /  1002.9hPa NNW 10.0mph /  16.1km/h 13.0mph /  20.9km/h 89% 0.06in /  1.52mm
11:59 32.6 °F /  0.3 °C 29.7 °F /  -1.3 °C 29.63in /  1003.3hPa North 7.0mph /  11.3km/h 15.0mph /  24.1km/h 89% 0.06in /  1.52mm
12:04 32.6 °F /  0.3 °C 29.7 °F /  -1.3 °C 29.63in /  1003.3hPa North 6.0mph /  9.7km/h 13.0mph /  20.9km/h 89% 0.07in /  1.78mm
12:09 32.5 °F /  0.3 °C 29.3 °F /  -1.5 °C 29.63in /  1003.3hPa NW 12.0mph /  19.3km/h 12.0mph /  19.3km/h 88% 0.06in /  1.52mm
12:14 32.5 °F /  0.3 °C 29.3 °F /  -1.5 °C 29.64in /  1003.6hPa WNW 2.0mph /  3.2km/h 22.0mph /  35.4km/h 88% 0.06in /  1.52mm
12:19 32.6 °F /  0.3 °C 29.2 °F /  -1.6 °C 29.64in /  1003.6hPa NW 6.0mph /  9.7km/h 15.0mph /  24.1km/h 87% 0.06in /  1.52mm
12:24 32.7 °F /  0.4 °C 29.0 °F /  -1.7 °C 29.64in /  1003.6hPa NW 6.0mph /  9.7km/h 15.0mph /  24.1km/h 86% 0.05in /  1.27mm
12:29 32.8 °F /  0.4 °C 28.8 °F /  -1.8 °C 29.64in /  1003.6hPa NW 6.0mph /  9.7km/h 14.0mph /  22.5km/h 85% 0.05in /  1.27mm
12:34 32.8 °F /  0.4 °C 28.5 °F /  -1.9 °C 29.64in /  1003.6hPa NW 7.0mph /  11.3km/h 18.0mph /  29km/h 84% 0.04in /  1.02mm
12:39 32.8 °F /  0.4 °C 28.8 °F /  -1.8 °C 29.64in /  1003.6hPa NW 8.0mph /  12.9km/h 18.0mph /  29km/h 85% 0.05in /  1.27mm
12:44 32.8 °F /  0.4 °C 28.5 °F /  -1.9 °C 29.64in /  1003.6hPa NW 8.0mph /  12.9km/h 16.0mph /  25.7km/h 84% 0.04in /  1.02mm
12:49 33.0 °F /  0.6 °C 28.7 °F /  -1.8 °C 29.65in /  1003.9hPa NNW 7.0mph /  11.3km/h 12.0mph /  19.3km/h 84% 0.03in /  0.76mm
12:54 33.0 °F /  0.6 °C 28.7 °F /  -1.8 °C 29.65in /  1003.9hPa NW 6.0mph /  9.7km/h 12.0mph /  19.3km/h 84% 0.03in /  0.76mm
12:59 33.1 °F /  0.6 °C 28.8 °F /  -1.8 °C 29.65in /  1003.9hPa NNW 7.0mph /  11.3km/h 10.0mph /  16.1km/h 84% 0.04in /  1.02mm
13:04 33.0 °F /  0.6 °C 28.7 °F /  -1.8 °C 29.65in /  1003.9hPa WNW 7.0mph /  11.3km/h 15.0mph /  24.1km/h 84% 0.03in /  0.76mm
13:09 33.0 °F /  0.6 °C 28.4 °F /  -2 °C 29.65in /  1003.9hPa NNW 6.0mph /  9.7km/h 12.0mph /  19.3km/h 83% 0.03in /  0.76mm
13:14 33.2 °F /  0.7 °C 28.6 °F /  -1.9 °C 29.65in /  1003.9hPa NW 4.0mph /  6.4km/h 14.0mph /  22.5km/h 83% 0.02in /  0.51mm
13:19 33.1 °F /  0.6 °C 28.5 °F /  -1.9 °C 29.66in /  1004.3hPa West 4.0mph /  6.4km/h 17.0mph /  27.4km/h 83% 0.02in /  0.51mm
13:24 33.0 °F /  0.6 °C 28.4 °F /  -2 °C 29.66in /  1004.3hPa WNW 6.0mph /  9.7km/h 17.0mph /  27.4km/h 83% 0.02in /  0.51mm
13:29 33.0 °F /  0.6 °C 28.4 °F /  -2 °C 29.66in /  1004.3hPa NW 7.0mph /  11.3km/h 17.0mph /  27.4km/h 83% 0.03in /  0.76mm
13:34 33.0 °F /  0.6 °C 28.4 °F /  -2 °C 29.66in /  1004.3hPa NW 7.0mph /  11.3km/h 17.0mph /  27.4km/h 83% 0.03in /  0.76mm
13:39 33.0 °F /  0.6 °C 28.4 °F /  -2 °C 29.66in /  1004.3hPa NW 7.0mph /  11.3km/h 17.0mph /  27.4km/h 83% 0.02in /  0.51mm
13:44 33.2 °F /  0.7 °C 28.6 °F /  -1.9 °C 29.67in /  1004.6hPa NW 5.0mph /  8km/h 12.0mph /  19.3km/h 83% 0.02in /  0.51mm
13:49 33.1 °F /  0.6 °C 28.2 °F /  -2.1 °C 29.67in /  1004.6hPa NNW 6.0mph /  9.7km/h 13.0mph /  20.9km/h 82% 0.02in /  0.51mm
13:54 33.3 °F /  0.7 °C 28.1 °F /  -2.2 °C 29.67in /  1004.6hPa North 5.0mph /  8km/h 13.0mph /  20.9km/h 81% 0.02in /  0.51mm
13:59 33.3 °F /  0.7 °C 28.1 °F /  -2.2 °C 29.68in /  1005hPa NW 6.0mph /  9.7km/h 14.0mph /  22.5km/h 81% 0.02in /  0.51mm
14:04 33.3 °F /  0.7 °C 28.1 °F /  -2.2 °C 29.68in /  1005hPa North 6.0mph /  9.7km/h 11.0mph /  17.7km/h 81% 0.02in /  0.51mm
14:09 33.4 °F /  0.8 °C 28.5 °F /  -1.9 °C 29.68in /  1005hPa NNW 2.0mph /  3.2km/h 8.0mph /  12.9km/h 82% 0.02in /  0.51mm
14:14 33.5 °F /  0.8 °C 28.6 °F /  -1.9 °C 29.68in /  1005hPa NW 4.0mph /  6.4km/h 10.0mph /  16.1km/h 82% 0.02in /  0.51mm
14:19 33.5 °F /  0.8 °C 28.6 °F /  -1.9 °C 29.68in /  1005hPa WNW 10.0mph /  16.1km/h 14.0mph /  22.5km/h 82% 0.02in /  0.51mm
14:24 33.3 °F /  0.7 °C 28.1 °F /  -2.2 °C 29.69in /  1005.3hPa WNW 15.0mph /  24.1km/h 16.0mph /  25.7km/h 81% 0.03in /  0.76mm
14:29 33.4 °F /  0.8 °C 28.5 °F /  -1.9 °C 29.69in /  1005.3hPa NW 1.0mph /  1.6km/h 17.0mph /  27.4km/h 82% 0.02in /  0.51mm
14:34 33.3 °F /  0.7 °C 28.1 °F /  -2.2 °C 29.69in /  1005.3hPa NW 7.0mph /  11.3km/h 17.0mph /  27.4km/h 81% 0.02in /  0.51mm
14:39 33.4 °F /  0.8 °C 28.2 °F /  -2.1 °C 29.69in /  1005.3hPa NW 6.0mph /  9.7km/h 14.0mph /  22.5km/h 81% 0.02in /  0.51mm
14:44 33.2 °F /  0.7 °C 28.0 °F /  -2.2 °C 29.69in /  1005.3hPa NW 6.0mph /  9.7km/h 16.0mph /  25.7km/h 81% 0.02in /  0.51mm
14:49 33.3 °F /  0.7 °C 28.1 °F /  -2.2 °C 29.69in /  1005.3hPa NW 8.0mph /  12.9km/h 16.0mph /  25.7km/h 81% 0.03in /  0.76mm
14:54 33.5 °F /  0.8 °C 28.0 °F /  -2.2 °C 29.70in /  1005.6hPa WNW 3.0mph /  4.8km/h 16.0mph /  25.7km/h 80% 0.03in /  0.76mm
14:59 33.4 °F /  0.8 °C 27.9 °F /  -2.3 °C 29.69in /  1005.3hPa NW 7.0mph /  11.3km/h 16.0mph /  25.7km/h 80% 0.02in /  0.51mm
15:04 33.5 °F /  0.8 °C 28.0 °F /  -2.2 °C 29.70in /  1005.6hPa NW 4.0mph /  6.4km/h 13.0mph /  20.9km/h 80% 0.02in /  0.51mm
15:09 33.7 °F /  0.9 °C 28.2 °F /  -2.1 °C 29.70in /  1005.6hPa NW 10.0mph /  16.1km/h 12.0mph /  19.3km/h 80% 0.02in /  0.51mm
15:14 33.7 °F /  0.9 °C 28.2 °F /  -2.1 °C 29.70in /  1005.6hPa NNW 5.0mph /  8km/h 13.0mph /  20.9km/h 80% 0.02in /  0.51mm
15:19 33.7 °F /  0.9 °C 27.9 °F /  -2.3 °C 29.71in /  1006hPa North 7.0mph /  11.3km/h 14.0mph /  22.5km/h 79% 0.02in /  0.51mm
15:24 33.9 °F /  1.1 °C 28.4 °F /  -2 °C 29.71in /  1006hPa NW 5.0mph /  8km/h 11.0mph /  17.7km/h 80% 0.02in /  0.51mm
15:29 33.9 °F /  1.1 °C 28.1 °F /  -2.2 °C 29.71in /  1006hPa NW 6.0mph /  9.7km/h 11.0mph /  17.7km/h 79% 0.02in /  0.51mm
15:34 33.9 °F /  1.1 °C 27.8 °F /  -2.3 °C 29.71in /  1006hPa NW 7.0mph /  11.3km/h 17.0mph /  27.4km/h 78% 0.02in /  0.51mm
15:39 33.8 °F /  1 °C 27.7 °F /  -2.4 °C 29.71in /  1006hPa NW 7.0mph /  11.3km/h 17.0mph /  27.4km/h 78% 0.02in /  0.51mm
15:44 33.9 °F /  1.1 °C 28.1 °F /  -2.2 °C 29.71in /  1006hPa NW 6.0mph /  9.7km/h 11.0mph /  17.7km/h 79% 0.02in /  0.51mm
15:49 34.2 °F /  1.2 °C 28.4 °F /  -2 °C 29.71in /  1006hPa NW 5.0mph /  8km/h 11.0mph /  17.7km/h 79% 0.01in /  0.25mm
15:54 34.2 °F /  1.2 °C 28.1 °F /  -2.2 °C 29.71in /  1006hPa WNW 4.0mph /  6.4km/h 10.0mph /  16.1km/h 78% 0.02in /  0.51mm
15:59 34.1 °F /  1.2 °C 28.0 °F /  -2.2 °C 29.72in /  1006.3hPa WNW 3.0mph /  4.8km/h 13.0mph /  20.9km/h 78% 0.02in /  0.51mm
16:04 34.3 °F /  1.3 °C 28.2 °F /  -2.1 °C 29.72in /  1006.3hPa NW 6.0mph /  9.7km/h 13.0mph /  20.9km/h 78% 0.02in /  0.51mm
16:09 34.3 °F /  1.3 °C 28.2 °F /  -2.1 °C 29.72in /  1006.3hPa NW 5.0mph /  8km/h 11.0mph /  17.7km/h 78% 0.02in /  0.51mm
16:14 34.4 °F /  1.3 °C 28.2 °F /  -2.1 °C 29.72in /  1006.3hPa NW 3.0mph /  4.8km/h 12.0mph /  19.3km/h 78% 0.02in /  0.51mm
16:19 34.3 °F /  1.3 °C 28.2 °F /  -2.1 °C 29.72in /  1006.3hPa WNW 6.0mph /  9.7km/h 13.0mph /  20.9km/h 78% 0.02in /  0.51mm
16:24 34.3 °F /  1.3 °C 28.2 °F /  -2.1 °C 29.72in /  1006.3hPa NW 6.0mph /  9.7km/h 12.0mph /  19.3km/h 78% 0.01in /  0.25mm
16:29 34.3 °F /  1.3 °C 27.8 °F /  -2.3 °C 29.73in /  1006.7hPa WNW 4.0mph /  6.4km/h 11.0mph /  17.7km/h 77% 0.01in /  0.25mm
16:34 34.4 °F /  1.3 °C 27.9 °F /  -2.3 °C 29.73in /  1006.7hPa NW 6.0mph /  9.7km/h 16.0mph /  25.7km/h 77% 0.01in /  0.25mm
16:44 34.5 °F /  1.4 °C 27.4 °F /  -2.6 °C 29.73in /  1006.7hPa North 3.0mph /  4.8km/h 13.0mph /  20.9km/h 75% 0.02in /  0.51mm
16:49 34.7 °F /  1.5 °C 27.9 °F /  -2.3 °C 29.73in /  1006.7hPa NW 10.0mph /  16.1km/h 12.0mph /  19.3km/h 76% 0.02in /  0.51mm
16:54 34.8 °F /  1.6 °C 28.0 °F /  -2.2 °C 29.73in /  1006.7hPa WNW 6.0mph /  9.7km/h 14.0mph /  22.5km/h 76% 0.01in /  0.25mm
16:59 35.1 °F /  1.7 °C 28.0 °F /  -2.2 °C 29.73in /  1006.7hPa NNW 5.0mph /  8km/h 10.0mph /  16.1km/h 75% 0.01in /  0.25mm
17:04 35.1 °F /  1.7 °C 27.6 °F /  -2.4 °C 29.74in /  1007hPa NW 6.0mph /  9.7km/h 11.0mph /  17.7km/h 74% 0.01in /  0.25mm
17:09 35.3 °F /  1.8 °C 28.2 °F /  -2.1 °C 29.74in /  1007hPa NW 5.0mph /  8km/h 11.0mph /  17.7km/h 75% 0.02in /  0.51mm
17:14 35.5 °F /  1.9 °C 28.0 °F /  -2.2 °C 29.74in /  1007hPa NW 5.0mph /  8km/h 14.0mph /  22.5km/h 74% 0.02in /  0.51mm
17:19 35.7 °F /  2.1 °C 28.2 °F /  -2.1 °C 29.74in /  1007hPa NW 5.0mph /  8km/h 14.0mph /  22.5km/h 74% 0.02in /  0.51mm
17:24 35.9 °F /  2.2 °C 28.1 °F /  -2.2 °C 29.75in /  1007.3hPa NW 5.0mph /  8km/h 11.0mph /  17.7km/h 73% 0.02in /  0.51mm
17:29 36.0 °F /  2.2 °C 28.2 °F /  -2.1 °C 29.75in /  1007.3hPa NW 5.0mph /  8km/h 11.0mph /  17.7km/h 73% 0.02in /  0.51mm
17:34 36.2 °F /  2.3 °C 27.7 °F /  -2.4 °C 29.75in /  1007.3hPa NNW 3.0mph /  4.8km/h 11.0mph /  17.7km/h 71% 0.02in /  0.51mm
17:39 36.6 °F /  2.6 °C 27.7 °F /  -2.4 °C 29.75in /  1007.3hPa NNW 5.0mph /  8km/h 11.0mph /  17.7km/h 70% 0.01in /  0.25mm
17:44 36.8 °F /  2.7 °C 27.6 °F /  -2.4 °C 29.75in /  1007.3hPa NW 9.0mph /  14.5km/h 13.0mph /  20.9km/h 69% 0.02in /  0.51mm
17:49 37.2 °F /  2.9 °C 27.2 °F /  -2.7 °C 29.76in /  1007.7hPa NNE 7.0mph /  11.3km/h 12.0mph /  19.3km/h 67% 0.02in /  0.51mm
17:54 37.4 °F /  3 °C 27.4 °F /  -2.6 °C 29.76in /  1007.7hPa NW 6.0mph /  9.7km/h 14.0mph /  22.5km/h 67% 0.02in /  0.51mm
17:59 37.5 °F /  3.1 °C 27.9 °F /  -2.3 °C 29.76in /  1007.7hPa WNW 3.0mph /  4.8km/h 11.0mph /  17.7km/h 68% 0.02in /  0.51mm
18:04 37.6 °F /  3.1 °C 27.3 °F /  -2.6 °C 29.76in /  1007.7hPa NW 5.0mph /  8km/h 11.0mph /  17.7km/h 66% 0.03in /  0.76mm
18:09 37.5 °F /  3.1 °C 27.5 °F /  -2.5 °C 29.76in /  1007.7hPa WNW 5.0mph /  8km/h 11.0mph /  17.7km/h 67% 0.02in /  0.51mm
18:14 37.7 °F /  3.2 °C 27.4 °F /  -2.6 °C 29.77in /  1008hPa NW 5.0mph /  8km/h 13.0mph /  20.9km/h 66% 0.02in /  0.51mm
18:19 37.6 °F /  3.1 °C 27.6 °F /  -2.4 °C 29.77in /  1008hPa NW 6.0mph /  9.7km/h 15.0mph /  24.1km/h 67% 0.02in /  0.51mm
18:24 37.7 °F /  3.2 °C 27.7 °F /  -2.4 °C 29.77in /  1008hPa NW 6.0mph /  9.7km/h 15.0mph /  24.1km/h 67% 0.02in /  0.51mm
18:29 37.5 °F /  3.1 °C 27.2 °F /  -2.7 °C 29.77in /  1008hPa NNW 4.0mph /  6.4km/h 10.0mph /  16.1km/h 66% 0.02in /  0.51mm
18:34 37.6 °F /  3.1 °C 27.6 °F /  -2.4 °C 29.77in /  1008hPa NW 5.0mph /  8km/h 12.0mph /  19.3km/h 67% 0.02in /  0.51mm
18:39 37.5 °F /  3.1 °C 27.5 °F /  -2.5 °C 29.78in /  1008.4hPa NNW 6.0mph /  9.7km/h 14.0mph /  22.5km/h 67% 0.02in /  0.51mm
18:44 37.5 °F /  3.1 °C 27.9 °F /  -2.3 °C 29.78in /  1008.4hPa West 9.0mph /  14.5km/h 12.0mph /  19.3km/h 68% 0.01in /  0.25mm
18:49 37.4 °F /  3 °C 27.1 °F /  -2.7 °C 29.78in /  1008.4hPa WNW 3.0mph /  4.8km/h 11.0mph /  17.7km/h 66% 0.01in /  0.25mm
18:54 37.4 °F /  3 °C 27.1 °F /  -2.7 °C 29.78in /  1008.4hPa NNW 2.0mph /  3.2km/h 14.0mph /  22.5km/h 66% 0.01in /  0.25mm
18:59 37.3 °F /  2.9 °C 27.0 °F /  -2.8 °C 29.78in /  1008.4hPa North 7.0mph /  11.3km/h 14.0mph /  22.5km/h 66% 0.01in /  0.25mm
19:04 37.3 °F /  2.9 °C 27.0 °F /  -2.8 °C 29.79in /  1008.7hPa NW 7.0mph /  11.3km/h 10.0mph /  16.1km/h 66% 0.01in /  0.25mm
19:09 37.2 °F /  2.9 °C 26.9 °F /  -2.8 °C 29.79in /  1008.7hPa NW 5.0mph /  8km/h 15.0mph /  24.1km/h 66% 0.01in /  0.25mm
19:14 37.1 °F /  2.8 °C 26.8 °F /  -2.9 °C 29.79in /  1008.7hPa NW 4.0mph /  6.4km/h 15.0mph /  24.1km/h 66% 0.01in /  0.25mm
19:19 37.0 °F /  2.8 °C 26.3 °F /  -3.2 °C 29.79in /  1008.7hPa NW 4.0mph /  6.4km/h 11.0mph /  17.7km/h 65% 0.01in /  0.25mm
19:24 36.9 °F /  2.7 °C 26.2 °F /  -3.2 °C 29.80in /  1009hPa NW 5.0mph /  8km/h 11.0mph /  17.7km/h 65% 0.01in /  0.25mm
19:29 36.8 °F /  2.7 °C 26.5 °F /  -3.1 °C 29.80in /  1009hPa NW 4.0mph /  6.4km/h 11.0mph /  17.7km/h 66% 0.01in /  0.25mm
19:34 36.5 °F /  2.5 °C 26.2 °F /  -3.2 °C 29.80in /  1009hPa WNW 6.0mph /  9.7km/h 7.0mph /  11.3km/h 66% 0.01in /  0.25mm
19:39 36.4 °F /  2.4 °C 26.1 °F /  -3.3 °C 29.80in /  1009hPa NW 4.0mph /  6.4km/h 9.0mph /  14.5km/h 66% 0.01in /  0.25mm
19:44 36.2 °F /  2.3 °C 26.3 °F /  -3.2 °C 29.80in /  1009hPa NNW 5.0mph /  8km/h 8.0mph /  12.9km/h 67% 0.01in /  0.25mm
19:49 36.2 °F /  2.3 °C 26.3 °F /  -3.2 °C 29.81in /  1009.4hPa NW 3.0mph /  4.8km/h 7.0mph /  11.3km/h 67% 0.01in /  0.25mm
19:54 36.1 °F /  2.3 °C 26.6 °F /  -3 °C 29.81in /  1009.4hPa WNW 3.0mph /  4.8km/h 7.0mph /  11.3km/h 68% 0.01in /  0.25mm
19:59 35.9 °F /  2.2 °C 26.4 °F /  -3.1 °C 29.81in /  1009.4hPa West 1.0mph /  1.6km/h 5.0mph /  8km/h 68% 0.01in /  0.25mm
20:04 35.6 °F /  2 °C 26.4 °F /  -3.1 °C 29.81in /  1009.4hPa WNW 1.0mph /  1.6km/h 4.0mph /  6.4km/h 69% 0.00in /  0mm
20:09 35.7 °F /  2.1 °C 26.5 °F /  -3.1 °C 29.81in /  1009.4hPa WNW 3.0mph /  4.8km/h 8.0mph /  12.9km/h 69% 0.00in /  0mm
20:14 35.7 °F /  2.1 °C 26.5 °F /  -3.1 °C 29.81in /  1009.4hPa WNW 3.0mph /  4.8km/h 8.0mph /  12.9km/h 69% 0.00in /  0mm
20:19 35.9 °F /  2.2 °C 26.0 °F /  -3.3 °C 29.81in /  1009.4hPa WNW 4.0mph /  6.4km/h 9.0mph /  14.5km/h 67% 0.00in /  0mm
20:24 36.1 °F /  2.3 °C 26.2 °F /  -3.2 °C 29.82in /  1009.7hPa WNW 5.0mph /  8km/h 10.0mph /  16.1km/h 67% 0.00in /  0mm
20:29 35.9 °F /  2.2 °C 26.0 °F /  -3.3 °C 29.82in /  1009.7hPa West 4.0mph /  6.4km/h 10.0mph /  16.1km/h 67% 0.00in /  0mm
20:34 35.7 °F /  2.1 °C 25.8 °F /  -3.4 °C 29.82in /  1009.7hPa West 3.0mph /  4.8km/h 7.0mph /  11.3km/h 67% 0.00in /  0mm
20:39 35.5 °F /  1.9 °C 25.6 °F /  -3.6 °C 29.82in /  1009.7hPa West 3.0mph /  4.8km/h 6.0mph /  9.7km/h 67% 0.00in /  0mm
20:44 35.3 °F /  1.8 °C 25.4 °F /  -3.7 °C 29.82in /  1009.7hPa West 3.0mph /  4.8km/h 6.0mph /  9.7km/h 67% 0.00in /  0mm
20:49 35.4 °F /  1.9 °C 25.5 °F /  -3.6 °C 29.83in /  1010hPa WSW 2.0mph /  3.2km/h 7.0mph /  11.3km/h 67% 0.00in /  0mm
20:54 35.4 °F /  1.9 °C 25.5 °F /  -3.6 °C 29.83in /  1010hPa WNW 2.0mph /  3.2km/h 7.0mph /  11.3km/h 67% 0.00in /  0mm
20:59 35.4 °F /  1.9 °C 25.2 °F /  -3.8 °C 29.83in /  1010hPa West 4.0mph /  6.4km/h 7.0mph /  11.3km/h 66% 0.00in /  0mm
21:04 35.2 °F /  1.8 °C 25.3 °F /  -3.7 °C 29.83in /  1010hPa WNW 2.0mph /  3.2km/h 5.0mph /  8km/h 67% 0.00in /  0mm
21:09 35.2 °F /  1.8 °C 25.7 °F /  -3.5 °C 29.83in /  1010hPa West 2.0mph /  3.2km/h 7.0mph /  11.3km/h 68% 0.00in /  0mm
21:14 35.0 °F /  1.7 °C 25.5 °F /  -3.6 °C 29.83in /  1010hPa West 4.0mph /  6.4km/h 8.0mph /  12.9km/h 68% 0.00in /  0mm
21:19 35.1 °F /  1.7 °C 25.6 °F /  -3.6 °C 29.84in /  1010.4hPa West 4.0mph /  6.4km/h 8.0mph /  12.9km/h 68% 0.00in /  0mm
21:24 35.1 °F /  1.7 °C 25.2 °F /  -3.8 °C 29.84in /  1010.4hPa West 3.0mph /  4.8km/h 7.0mph /  11.3km/h 67% 0.00in /  0mm
21:29 35.2 °F /  1.8 °C 25.0 °F /  -3.9 °C 29.84in /  1010.4hPa West 3.0mph /  4.8km/h 8.0mph /  12.9km/h 66% 0.00in /  0mm
21:34 35.1 °F /  1.7 °C 24.9 °F /  -3.9 °C 29.84in /  1010.4hPa West 3.0mph /  4.8km/h 8.0mph /  12.9km/h 66% 0.00in /  0mm
21:39 35.1 °F /  1.7 °C 24.5 °F /  -4.2 °C 29.84in /  1010.4hPa West 2.0mph /  3.2km/h 7.0mph /  11.3km/h 65% 0.00in /  0mm
21:44 35.1 °F /  1.7 °C 24.1 °F /  -4.4 °C 29.85in /  1010.7hPa West 3.0mph /  4.8km/h 8.0mph /  12.9km/h 64% 0.00in /  0mm
21:49 35.0 °F /  1.7 °C 24.0 °F /  -4.4 °C 29.85in /  1010.7hPa West 2.0mph /  3.2km/h 8.0mph /  12.9km/h 64% 0.00in /  0mm
21:54 35.0 °F /  1.7 °C 24.0 °F /  -4.4 °C 29.85in /  1010.7hPa WSW 2.0mph /  3.2km/h 5.0mph /  8km/h 64% 0.00in /  0mm
21:59 34.8 °F /  1.6 °C 24.2 °F /  -4.3 °C 29.85in /  1010.7hPa West 2.0mph /  3.2km/h 4.0mph /  6.4km/h 65% 0.00in /  0mm
22:04 34.6 °F /  1.4 °C 24.0 °F /  -4.4 °C 29.85in /  1010.7hPa West 1.0mph /  1.6km/h 6.0mph /  9.7km/h 65% 0.00in /  0mm
22:09 34.5 °F /  1.4 °C 23.6 °F /  -4.7 °C 29.85in /  1010.7hPa WNW 3.0mph /  4.8km/h 7.0mph /  11.3km/h 64% 0.00in /  0mm
22:14 34.4 °F /  1.3 °C 23.5 °F /  -4.7 °C 29.85in /  1010.7hPa WNW 3.0mph /  4.8km/h 7.0mph /  11.3km/h 64% 0.00in /  0mm
22:19 34.4 °F /  1.3 °C 23.5 °F /  -4.7 °C 29.85in /  1010.7hPa West 3.0mph /  4.8km/h 6.0mph /  9.7km/h 64% 0.00in /  0mm
22:24 34.4 °F /  1.3 °C 23.5 °F /  -4.7 °C 29.85in /  1010.7hPa West 3.0mph /  4.8km/h 6.0mph /  9.7km/h 64% 0.00in /  0mm
22:29 34.6 °F /  1.4 °C 23.3 °F /  -4.8 °C 29.85in /  1010.7hPa West 2.0mph /  3.2km/h 7.0mph /  11.3km/h 63% 0.00in /  0mm
22:34 34.7 °F /  1.5 °C 23.4 °F /  -4.8 °C 29.85in /  1010.7hPa West 5.0mph /  8km/h 6.0mph /  9.7km/h 63% 0.00in /  0mm
22:39 34.9 °F /  1.6 °C 23.6 °F /  -4.7 °C 29.85in /  1010.7hPa West 2.0mph /  3.2km/h 7.0mph /  11.3km/h 63% 0.00in /  0mm
22:44 34.8 °F /  1.6 °C 23.5 °F /  -4.7 °C 29.85in /  1010.7hPa WNW 3.0mph /  4.8km/h 5.0mph /  8km/h 63% 0.00in /  0mm
22:49 34.7 °F /  1.5 °C 23.8 °F /  -4.6 °C 29.85in /  1010.7hPa West 3.0mph /  4.8km/h 6.0mph /  9.7km/h 64% 0.00in /  0mm
22:54 34.5 °F /  1.4 °C 23.6 °F /  -4.7 °C 29.86in /  1011.1hPa West 3.0mph /  4.8km/h 6.0mph /  9.7km/h 64% 0.00in /  0mm
22:59 34.6 °F /  1.4 °C 23.7 °F /  -4.6 °C 29.86in /  1011.1hPa West 3.0mph /  4.8km/h 6.0mph /  9.7km/h 64% 0.00in /  0mm
23:04 34.7 °F /  1.5 °C 24.1 °F /  -4.4 °C 29.86in /  1011.1hPa West 3.0mph /  4.8km/h 8.0mph /  12.9km/h 65% 0.00in /  0mm
23:09 34.7 °F /  1.5 °C 24.1 °F /  -4.4 °C 29.86in /  1011.1hPa West 4.0mph /  6.4km/h 8.0mph /  12.9km/h 65% 0.00in /  0mm
23:14 34.8 °F /  1.6 °C 24.2 °F /  -4.3 °C 29.86in /  1011.1hPa West 4.0mph /  6.4km/h 7.0mph /  11.3km/h 65% 0.00in /  0mm
23:19 34.7 °F /  1.5 °C 24.1 °F /  -4.4 °C 29.86in /  1011.1hPa West 4.0mph /  6.4km/h 8.0mph /  12.9km/h 65% 0.00in /  0mm
23:24 34.6 °F /  1.4 °C 24.4 °F /  -4.2 °C 29.86in /  1011.1hPa WNW 3.0mph /  4.8km/h 8.0mph /  12.9km/h 66% 0.00in /  0mm
23:29 34.6 °F /  1.4 °C 24.4 °F /  -4.2 °C 29.86in /  1011.1hPa West 5.0mph /  8km/h 8.0mph /  12.9km/h 66% 0.00in /  0mm
23:34 34.6 °F /  1.4 °C 24.4 °F /  -4.2 °C 29.86in /  1011.1hPa WSW 3.0mph /  4.8km/h 9.0mph /  14.5km/h 66% 0.00in /  0mm
23:39 34.6 °F /  1.4 °C 24.4 °F /  -4.2 °C 29.86in /  1011.1hPa West 7.0mph /  11.3km/h 10.0mph /  16.1km/h 66% 0.00in /  0mm
23:44 34.4 °F /  1.3 °C 24.2 °F /  -4.3 °C 29.86in /  1011.1hPa WNW 7.0mph /  11.3km/h 10.0mph /  16.1km/h 66% 0.00in /  0mm
23:49 34.4 °F /  1.3 °C 24.2 °F /  -4.3 °C 29.86in /  1011.1hPa West 2.0mph /  3.2km/h 8.0mph /  12.9km/h 66% 0.00in /  0mm
23:54 34.3 °F /  1.3 °C 24.5 °F /  -4.2 °C 29.86in /  1011.1hPa West 4.0mph /  6.4km/h 8.0mph /  12.9km/h 67% 0.00in /  0mm
23:59 34.1 °F /  1.2 °C 24.3 °F /  -4.3 °C 29.86in /  1011.1hPa West 4.0mph /  6.4km/h 9.0mph /  14.5km/h 67% 0.00in /  0mm
Buffalo, New York, USA
Compliments of Weather Underground - 2.5 mb